createdAt,value
2023-01-25T00:02:04.940Z,-183.86461
2023-01-25T00:07:05.903Z,-182.07472
2023-01-25T00:12:06.858Z,-181.00416
2023-01-25T00:17:07.785Z,-180.71165
2023-01-25T00:22:08.697Z,-179.88818
2023-01-25T00:27:09.658Z,-178.6197
2023-01-25T00:32:10.754Z,-177.40516
2023-01-25T00:37:11.878Z,-175.56237
2023-01-25T00:42:12.936Z,-174.50845
2023-01-25T00:47:14.164Z,-174.10154
2023-01-25T00:52:15.173Z,-173.90534
2023-01-25T00:57:16.213Z,-173.06062
2023-01-25T01:02:17.205Z,-172.68602
2023-01-25T01:07:18.232Z,-173.5025
2023-01-25T01:12:19.204Z,-173.85601
2023-01-25T01:17:20.409Z,-174.25421
2023-01-25T01:22:21.439Z,-174.53338
2023-01-25T01:27:22.371Z,-174.06869
2023-01-25T01:32:23.519Z,-174.18785
2023-01-25T01:37:24.453Z,-174.00325
2023-01-25T01:42:25.450Z,-174.04129
2023-01-25T01:47:26.419Z,-173.64245
2023-01-25T01:52:27.340Z,-173.57984
2023-01-25T01:57:28.341Z,-173.11211
2023-01-25T02:02:29.342Z,-172.8575
2023-01-25T02:07:30.362Z,-173.04303
2023-01-25T02:12:31.322Z,-172.62449
2023-01-25T02:17:32.243Z,-172.98656
2023-01-25T02:22:33.295Z,-172.40739
2023-01-25T02:27:34.298Z,-171.93656
2023-01-25T02:32:35.253Z,-171.64231
2023-01-25T02:37:36.233Z,-171.83359
2023-01-25T02:42:37.180Z,-171.70769
2023-01-25T02:47:38.070Z,-170.84009
2023-01-25T02:52:39.024Z,-170.50444
2023-01-25T02:57:40.080Z,-169.76397
2023-01-25T03:02:41.060Z,-169.66717
2023-01-25T03:07:41.999Z,-169.65629
2023-01-25T03:12:42.928Z,-169.45888
2023-01-25T03:17:43.907Z,-169.41875
2023-01-25T03:22:44.885Z,-168.88201
2023-01-25T03:27:45.792Z,-168.77809
2023-01-25T03:32:46.722Z,-168.67783
2023-01-25T03:37:47.673Z,-168.06797
2023-01-25T03:42:48.617Z,-167.77785
2023-01-25T03:47:49.597Z,-167.7727
2023-01-25T03:52:50.487Z,-167.47322
2023-01-25T03:57:51.381Z,-167.13535
2023-01-25T04:02:52.307Z,-166.33446
2023-01-25T04:07:53.252Z,-165.67463
2023-01-25T04:12:54.201Z,-165.22552
2023-01-25T04:17:55.096Z,-164.31611
2023-01-25T04:22:56.046Z,-163.80024
2023-01-25T04:27:56.975Z,-163.11359
2023-01-25T04:32:57.895Z,-162.34208
2023-01-25T04:37:58.841Z,-162.01126
2023-01-25T04:43:00.346Z,-161.82368
2023-01-25T04:48:01.472Z,-160.93713
2023-01-25T04:53:02.392Z,-160.74567
2023-01-25T04:58:03.370Z,-160.44899
2023-01-25T05:03:04.349Z,-160.34705
2023-01-25T05:08:05.264Z,-159.54588
2023-01-25T05:13:06.235Z,-159.05314
2023-01-25T05:18:07.227Z,-159.16907
2023-01-25T05:23:08.175Z,-159.16037
2023-01-25T05:28:09.064Z,-158.54959
2023-01-25T05:33:10.007Z,-158.60509
2023-01-25T05:38:10.931Z,-158.78068
2023-01-25T05:43:11.892Z,-159.0542
2023-01-25T05:48:12.813Z,-159.34387
2023-01-25T05:53:13.739Z,-159.19946
2023-01-25T05:58:14.664Z,-159.46911
2023-01-25T06:03:15.939Z,-159.30353
2023-01-25T06:08:16.969Z,-158.60381
2023-01-25T06:13:17.903Z,-157.98032
2023-01-25T06:18:18.824Z,-157.54517
2023-01-25T06:23:19.772Z,-157.28097
2023-01-25T06:28:20.694Z,-156.82088
2023-01-25T06:33:21.786Z,-156.68723
2023-01-25T06:38:22.737Z,-156.82003
2023-01-25T06:43:23.823Z,-157.50012
2023-01-25T06:48:24.877Z,-157.56445
2023-01-25T06:53:26.098Z,-156.71667
2023-01-25T06:58:27.213Z,-155.69102
2023-01-25T07:03:28.297Z,-154.81935
2023-01-25T07:08:29.294Z,-154.44402
2023-01-25T07:13:30.599Z,-154.453
2023-01-25T07:18:31.634Z,-154.41178
2023-01-25T07:23:32.641Z,-154.09286
2023-01-25T07:28:33.642Z,-154.03868
2023-01-25T07:33:34.643Z,-153.09739
2023-01-25T07:38:35.565Z,-152.82205
2023-01-25T07:43:36.641Z,-152.65619
2023-01-25T07:48:37.584Z,-152.2096
2023-01-25T07:53:38.516Z,-152.36198
2023-01-25T07:58:39.440Z,-151.53257
2023-01-25T08:03:40.412Z,-151.3526
2023-01-25T08:08:41.526Z,-151.05821
2023-01-25T08:13:42.535Z,-150.68632
2023-01-25T08:18:43.443Z,-150.02662
2023-01-25T08:23:44.434Z,-149.77443
2023-01-25T08:28:45.530Z,-149.43488
2023-01-25T08:33:46.479Z,-148.87737
2023-01-25T08:38:47.732Z,-148.67509
2023-01-25T08:43:49.161Z,-148.75616
2023-01-25T08:48:50.179Z,-149.14337
2023-01-25T08:53:51.354Z,-148.98707
2023-01-25T08:58:52.281Z,-148.96625
2023-01-25T09:03:53.319Z,-149.26429
2023-01-25T09:08:54.402Z,-149.03519
2023-01-25T09:13:55.433Z,-148.74446
2023-01-25T09:18:56.411Z,-148.50935
2023-01-25T09:24:07.193Z,-148.72533
2023-01-25T09:29:08.648Z,-148.674
2023-01-25T09:34:09.655Z,-148.52654
2023-01-25T09:39:10.538Z,-147.60628
2023-01-25T09:44:14.951Z,-146.83813
2023-01-25T09:49:16.345Z,-146.7674
2023-01-25T09:54:17.577Z,-146.61577
2023-01-25T09:59:18.837Z,-146.32123
2023-01-25T10:04:20.016Z,-146.05128
2023-01-25T10:09:21.042Z,-146.24789
2023-01-25T10:14:22.009Z,-145.23802
2023-01-25T10:19:23.030Z,-144.72613
2023-01-25T10:24:24.051Z,-144.21268
2023-01-25T10:29:25.167Z,-143.39342
2023-01-25T10:34:26.274Z,-141.88629
2023-01-25T10:39:27.792Z,-141.83567
2023-01-25T10:44:28.774Z,-141.1142
2023-01-25T10:49:29.702Z,-140.72982
2023-01-25T10:54:30.626Z,-140.42354
2023-01-25T10:59:31.763Z,-139.95923
2023-01-25T11:04:32.702Z,-139.99218
2023-01-25T11:09:33.680Z,-139.12792
2023-01-25T11:14:34.757Z,-137.84553
2023-01-25T11:19:35.735Z,-137.44548
2023-01-25T11:24:36.695Z,-136.21495
2023-01-25T11:29:37.877Z,-134.87116
2023-01-25T11:34:38.977Z,-134.41797
2023-01-25T11:39:39.960Z,-133.53036
2023-01-25T11:44:40.875Z,-132.78307
2023-01-25T11:49:41.913Z,-131.97159
2023-01-25T11:54:42.958Z,-130.83114
2023-01-25T11:59:43.916Z,-129.26016
2023-01-25T12:04:44.957Z,-128.63387
2023-01-25T12:09:45.899Z,-127.48608
2023-01-25T12:14:46.892Z,-126.31742
2023-01-25T12:19:47.802Z,-126.03806
2023-01-25T12:24:48.992Z,-125.51122
2023-01-25T12:29:50.080Z,-124.13482
2023-01-25T12:34:51.169Z,-123.55678
2023-01-25T12:39:52.117Z,-123.28679
2023-01-25T12:44:53.586Z,-122.88178
2023-01-25T12:49:54.489Z,-122.82428
2023-01-25T12:54:56.953Z,-121.99068
2023-01-25T12:59:57.975Z,-121.39088
2023-01-25T13:04:58.933Z,-121.23721
2023-01-25T13:10:00.200Z,-120.5509
2023-01-25T13:15:01.585Z,-120.71518
2023-01-25T13:20:02.611Z,-120.15034
2023-01-25T13:25:03.511Z,-119.29563
2023-01-25T13:30:04.481Z,-118.64469
2023-01-25T13:35:05.423Z,-118.54053
2023-01-25T13:40:06.778Z,-117.66636
2023-01-25T13:45:08.329Z,-117.02362
2023-01-25T13:50:09.814Z,-116.61707
2023-01-25T13:55:10.856Z,-115.90432
2023-01-25T14:00:11.917Z,-114.97965
2023-01-25T14:05:12.881Z,-114.21289
2023-01-25T14:10:13.808Z,-114.51149
2023-01-25T14:15:14.726Z,-114.12166
2023-01-25T14:20:15.684Z,-112.99847
2023-01-25T14:25:16.632Z,-112.50949
2023-01-25T14:30:17.559Z,-113.24286
2023-01-25T14:35:18.564Z,-111.94106
2023-01-25T14:40:19.540Z,-111.68213
2023-01-25T14:45:20.610Z,-111.41853
2023-01-25T14:50:21.504Z,-111.05671
2023-01-25T14:55:22.414Z,-110.61107
2023-01-25T15:00:23.304Z,-109.6624
2023-01-25T15:05:24.231Z,-108.72845
2023-01-25T15:10:25.118Z,-108.29917
2023-01-25T15:15:26.027Z,-107.48005
2023-01-25T15:20:28.204Z,-107.07596
2023-01-25T15:25:30.052Z,-106.62103
2023-01-25T15:30:30.998Z,-106.45078
2023-01-25T15:35:32.054Z,-105.96634
2023-01-25T15:40:32.971Z,-105.97305
2023-01-25T15:45:34.028Z,-105.58306
2023-01-25T15:50:35.003Z,-105.13432
2023-01-25T15:55:36.044Z,-104.86772
2023-01-25T16:00:37.140Z,-104.8014
2023-01-25T16:05:38.173Z,-104.11185
2023-01-25T16:10:39.114Z,-103.71894
2023-01-25T16:15:40.112Z,-102.9786
2023-01-25T16:20:41.065Z,-102.1174
2023-01-25T16:25:41.982Z,-101.86889
2023-01-25T16:30:42.989Z,-100.99647
2023-01-25T16:35:43.993Z,-100.60539
2023-01-25T16:40:45.013Z,-100.4175
2023-01-25T16:45:46.032Z,-100.1692
2023-01-25T16:50:46.998Z,-99.83588
2023-01-25T16:55:47.997Z,-99.08766
2023-01-25T17:00:48.948Z,-98.34358
2023-01-25T17:05:49.955Z,-98.08137
2023-01-25T17:10:50.981Z,-96.79781
2023-01-25T17:15:52.017Z,-96.44743
2023-01-25T17:20:53.019Z,-97.29752
2023-01-25T17:25:54.095Z,-96.43593
2023-01-25T17:30:55.162Z,-96.26651
2023-01-25T17:35:56.191Z,-96.12502
2023-01-25T17:40:57.093Z,-95.2362
2023-01-25T17:45:58.131Z,-94.74823
2023-01-25T17:50:59.047Z,-94.144
2023-01-25T17:56:00.346Z,-93.7767
2023-01-25T18:01:13.085Z,-93.69445
2023-01-25T18:06:15.038Z,-93.11513
2023-01-25T18:11:15.944Z,-92.37582
2023-01-25T18:16:16.969Z,-92.0392
2023-01-25T18:21:18.091Z,-91.57517
2023-01-25T18:26:19.027Z,-91.02373
2023-01-25T18:31:20.141Z,-91.49007
2023-01-25T18:36:21.375Z,-91.57436
2023-01-25T18:41:22.313Z,-91.06143
2023-01-25T18:46:23.337Z,-91.26941
2023-01-25T18:51:24.407Z,-90.99766
2023-01-25T18:56:25.367Z,-90.28552
2023-01-25T19:01:26.380Z,-89.17763
2023-01-25T19:06:27.432Z,-88.93887
2023-01-25T19:11:28.364Z,-88.2365
2023-01-25T19:16:29.291Z,-87.72516
2023-01-25T19:21:30.284Z,-86.9944
2023-01-25T19:26:31.179Z,-86.36053
2023-01-25T19:31:32.310Z,-85.86813
2023-01-25T19:36:33.373Z,-85.93842
2023-01-25T19:41:34.279Z,-85.20493
2023-01-25T19:46:35.283Z,-83.87002
2023-01-25T19:51:36.473Z,-83.96649
2023-01-25T19:56:37.525Z,-83.34215
2023-01-25T20:01:38.547Z,-82.46823
2023-01-25T20:06:39.737Z,-81.49701
2023-01-25T20:11:40.688Z,-81.71728
2023-01-25T20:16:41.643Z,-80.76991
2023-01-25T20:21:42.581Z,-81.12499
2023-01-25T20:26:43.518Z,-80.53403
2023-01-25T20:31:44.567Z,-79.86902
2023-01-25T20:36:45.563Z,-80.04201
2023-01-25T20:41:46.462Z,-80.19865
2023-01-25T20:46:47.476Z,-80.2329
2023-01-25T20:51:48.440Z,-79.76962
2023-01-25T20:56:49.405Z,-78.95253
2023-01-25T21:01:50.392Z,-78.59019
2023-01-25T21:06:51.345Z,-78.40261
2023-01-25T21:11:52.327Z,-78.78671
2023-01-25T21:16:53.295Z,-78.55406
2023-01-25T21:21:54.279Z,-78.10668
2023-01-25T21:26:55.341Z,-78.06185
2023-01-25T21:31:56.346Z,-77.52265
2023-01-25T21:36:57.337Z,-77.07669
2023-01-25T21:41:58.290Z,-76.48328
2023-01-25T21:47:29.615Z,-75.77044
2023-01-25T21:52:31.597Z,-75.59951
2023-01-25T21:57:32.504Z,-75.78925
2023-01-25T22:02:33.465Z,-76.17485
2023-01-25T22:07:34.438Z,-76.45252
2023-01-25T22:12:35.375Z,-75.6319
2023-01-25T22:17:36.314Z,-74.77653
2023-01-25T22:22:37.312Z,-74.49267
2023-01-25T22:27:38.309Z,-74.43799
2023-01-25T22:32:39.838Z,-73.48885
2023-01-25T22:37:40.831Z,-73.60971
2023-01-25T22:42:41.757Z,-73.2213
2023-01-25T22:47:42.778Z,-72.9589
2023-01-25T22:52:43.679Z,-72.09026
2023-01-25T22:57:44.658Z,-72.19724
2023-01-25T23:02:45.561Z,-72.1834
2023-01-25T23:07:46.526Z,-71.61778
2023-01-25T23:12:47.436Z,-70.8287
2023-01-25T23:17:48.372Z,-70.33596
2023-01-25T23:22:49.321Z,-69.60221
2023-01-25T23:27:50.357Z,-69.58324
2023-01-25T23:32:51.278Z,-69.21161
2023-01-25T23:37:52.222Z,-68.98088
2023-01-25T23:42:53.755Z,-68.84648
2023-01-25T23:47:54.746Z,-67.79965
2023-01-25T23:52:55.721Z,-67.32311
2023-01-25T23:57:56.663Z,-66.79829
